Time;durP1;ratioP1;P1;durP2;ratioP2;P2;SDS_P1;SDS_P2;PMS_P1;PMS_P2;Temp;Humidity;BMP_temperature;BMP_pressure;BME280_temperature;BME280_humidity;BME280_pressure;Samples;Min_cycle;Max_cycle;Signal;HPM_P1;HPM_P2
2021/09/15 00:02:25;;;;;;;;;7.40;6.00;;;;;;;;4960171;28;8859;-76
2021/09/15 00:04:52;;;;;;;;;6.20;6.00;;;;;;;;4965258;28;8987;-79
2021/09/15 00:07:20;;;;;;;;;6.00;6.00;;;;;;;;4964526;28;8955;-77
2021/09/15 00:09:48;;;;;;;;;4.60;4.40;;;;;;;;4961848;28;8889;-76
2021/09/15 00:12:16;;;;;;;;;6.20;6.20;;;;;;;;4961027;28;8874;-79
2021/09/15 00:14:43;;;;;;;;;7.40;5.60;;;;;;;;4963114;28;8898;-76
2021/09/15 00:17:10;;;;;;;;;7.40;7.40;;;;;;;;4964913;28;8905;-82
2021/09/15 00:19:37;;;;;;;;;6.00;6.00;;;;;;;;4963186;28;8919;-84
2021/09/15 00:22:05;;;;;;;;;7.00;5.20;;;;;;;;4962954;28;9720;-77
2021/09/15 00:24:32;;;;;;;;;6.60;5.80;;;;;;;;4964801;28;9743;-79
2021/09/15 00:27:01;;;;;;;;;6.60;6.60;;;;;;;;4963448;28;8885;-75
2021/09/15 00:29:28;;;;;;;;;7.20;5.80;;;;;;;;4962255;28;9778;-75
2021/09/15 00:31:55;;;;;;;;;5.00;5.00;;;;;;;;4961726;28;8841;-79
2021/09/15 00:34:27;;;;;;;;;7.00;5.20;;;;;;;;4965617;28;8899;-78
2021/09/15 00:36:54;;;;;;;;;6.80;5.00;;;;;;;;4957444;28;8970;-79
2021/09/15 00:39:22;;;;;;;;;6.00;6.00;;;;;;;;4961297;28;8901;-76
2021/09/15 00:41:49;;;;;;;;;7.00;7.00;;;;;;;;4955903;28;8878;-76
2021/09/15 00:44:19;;;;;;;;;6.60;5.40;;;;;;;;4966297;28;8884;-79
2021/09/15 00:46:46;;;;;;;;;6.00;6.00;;;;;;;;4967675;28;8869;-78
2021/09/15 00:49:14;;;;;;;;;7.40;7.40;;;;;;;;4966559;28;8960;-78
2021/09/15 00:51:43;;;;;;;;;7.00;7.00;;;;;;;;4966473;28;8947;-75
2021/09/15 00:54:12;;;;;;;;;6.60;6.60;;;;;;;;4965589;28;8873;-76
2021/09/15 00:56:40;;;;;;;;;8.40;8.40;;;;;;;;4968637;28;8885;-84
2021/09/15 00:59:07;;;;;;;;;7.60;7.60;;;;;;;;4966072;28;8869;-79
2021/09/15 01:01:36;;;;;;;;;7.60;7.60;;;;;;;;4964121;28;8846;-77
2021/09/15 01:04:05;;;;;;;;;6.80;6.80;;;;;;;;4963443;28;8899;-78
2021/09/15 01:06:34;;;;;;;;;8.60;8.00;;;;;;;;4966559;28;8892;-79
2021/09/15 01:09:01;;;;;;;;;9.00;9.00;;;;;;;;4965666;28;8878;-78
2021/09/15 01:11:29;;;;;;;;;7.80;7.80;;;;;;;;4966611;28;8874;-77
2021/09/15 01:13:56;;;;;;;;;8.20;8.20;;;;;;;;4967085;28;8883;-82
2021/09/15 01:16:24;;;;;;;;;10.20;7.20;;;;;;;;4966168;28;8979;-78
2021/09/15 01:18:52;;;;;;;;;9.60;7.80;;;;;;;;4966619;28;8865;-76
2021/09/15 01:21:21;;;;;;;;;6.80;6.80;;;;;;;;4961745;28;8888;-76
2021/09/15 01:23:49;;;;;;;;;6.20;6.20;;;;;;;;4965866;28;8869;-78
2021/09/15 01:26:16;;;;;;;;;8.40;7.80;;;;;;;;4967332;28;8857;-79
2021/09/15 01:28:43;;;;;;;;;7.00;7.00;;;;;;;;4968386;28;8871;-76
2021/09/15 01:31:10;;;;;;;;;7.80;7.40;;;;;;;;4962629;28;8879;-78
2021/09/15 01:33:38;;;;;;;;;9.00;9.00;;;;;;;;4966262;28;8891;-81
2021/09/15 01:36:05;;;;;;;;;8.40;8.40;;;;;;;;4973192;28;8875;-77
2021/09/15 01:38:34;;;;;;;;;9.40;9.40;;;;;;;;4969014;28;8861;-77
2021/09/15 01:41:01;;;;;;;;;9.00;9.00;;;;;;;;4966427;28;8889;-75
2021/09/15 01:43:29;;;;;;;;;9.40;8.40;;;;;;;;4958380;28;8955;-76
2021/09/15 01:45:56;;;;;;;;;7.00;7.00;;;;;;;;4966652;28;9701;-77
2021/09/15 01:48:23;;;;;;;;;10.40;8.80;;;;;;;;4967251;28;8899;-75
2021/09/15 01:50:51;;;;;;;;;10.00;8.60;;;;;;;;4965754;28;8915;-75
2021/09/15 01:53:18;;;;;;;;;10.00;10.00;;;;;;;;4966822;28;8885;-77
2021/09/15 01:55:48;;;;;;;;;7.00;7.00;;;;;;;;4965188;28;8919;-80
2021/09/15 01:58:15;;;;;;;;;8.80;7.40;;;;;;;;4966487;28;8896;-78
2021/09/15 02:00:42;;;;;;;;;8.00;8.00;;;;;;;;4963835;28;8836;-81
2021/09/15 02:03:09;;;;;;;;;10.00;10.00;;;;;;;;4965690;28;8861;-77
2021/09/15 02:05:37;;;;;;;;;5.80;5.80;;;;;;;;4965362;28;8893;-77
2021/09/15 02:08:04;;;;;;;;;6.60;6.60;;;;;;;;4964811;28;8857;-76
2021/09/15 02:10:31;;;;;;;;;7.00;7.00;;;;;;;;4965934;28;8870;-77
2021/09/15 02:13:00;;;;;;;;;6.80;6.80;;;;;;;;4965223;28;8885;-82
2021/09/15 02:15:27;;;;;;;;;9.60;8.00;;;;;;;;4965224;28;8873;-83
2021/09/15 02:17:55;;;;;;;;;6.80;6.80;;;;;;;;4960773;28;8873;-79
2021/09/15 02:20:22;;;;;;;;;6.80;6.80;;;;;;;;4965536;28;8980;-77
2021/09/15 02:22:49;;;;;;;;;19.40;15.00;;;;;;;;4966756;28;9013;-76
2021/09/15 02:25:16;;;;;;;;;8.00;7.20;;;;;;;;4964410;28;8858;-76
2021/09/15 02:27:44;;;;;;;;;7.00;7.00;;;;;;;;4965888;28;8866;-76
2021/09/15 02:30:13;;;;;;;;;6.00;6.00;;;;;;;;4964280;28;8972;-78
2021/09/15 02:32:40;;;;;;;;;7.60;7.60;;;;;;;;4964143;28;8866;-81
2021/09/15 02:35:08;;;;;;;;;8.40;8.40;;;;;;;;4965409;28;8948;-80
2021/09/15 02:37:35;;;;;;;;;9.60;8.00;;;;;;;;4969893;28;8879;-77
2021/09/15 02:40:03;;;;;;;;;7.60;5.80;;;;;;;;4961430;28;8984;-75
2021/09/15 02:42:30;;;;;;;;;11.20;10.00;;;;;;;;4963421;28;8891;-77
2021/09/15 02:44:57;;;;;;;;;15.20;11.80;;;;;;;;4965636;28;8908;-76
2021/09/15 02:47:26;;;;;;;;;9.00;9.00;;;;;;;;4964276;28;8889;-80
2021/09/15 02:49:53;;;;;;;;;11.00;11.00;;;;;;;;4963819;28;8913;-76
2021/09/15 02:52:20;;;;;;;;;11.20;11.20;;;;;;;;4964709;28;8899;-78
2021/09/15 02:54:48;;;;;;;;;15.80;12.00;;;;;;;;4965660;28;8869;-74
2021/09/15 02:57:15;;;;;;;;;12.40;12.40;;;;;;;;4960127;28;8996;-75
2021/09/15 02:59:43;;;;;;;;;13.00;12.40;;;;;;;;4961809;28;9049;-77
2021/09/15 03:02:10;;;;;;;;;14.00;13.60;;;;;;;;4963908;28;8943;-77
2021/09/15 03:04:39;;;;;;;;;15.80;15.80;;;;;;;;4963816;28;9031;-74
2021/09/15 03:07:06;;;;;;;;;12.80;11.40;;;;;;;;4961030;28;8865;-75
2021/09/15 03:09:34;;;;;;;;;12.80;12.80;;;;;;;;4963274;28;8995;-77
2021/09/15 03:12:01;;;;;;;;;11.00;11.00;;;;;;;;4962261;28;8872;-78
2021/09/15 03:14:28;;;;;;;;;15.40;13.60;;;;;;;;4964807;28;8899;-75
2021/09/15 03:16:56;;;;;;;;;8.80;8.80;;;;;;;;4964686;28;9011;-79
2021/09/15 03:19:23;;;;;;;;;17.60;14.00;;;;;;;;4964464;28;8874;-75
2021/09/15 03:21:52;;;;;;;;;14.40;14.00;;;;;;;;4964175;28;8873;-82
2021/09/15 03:24:19;;;;;;;;;13.60;12.00;;;;;;;;4965453;28;8877;-78
2021/09/15 03:26:46;;;;;;;;;13.40;13.40;;;;;;;;4964180;28;8899;-77
2021/09/15 03:29:14;;;;;;;;;17.00;14.60;;;;;;;;4965380;28;8885;-78
2021/09/15 03:31:41;;;;;;;;;17.40;16.80;;;;;;;;4960549;28;8841;-77
2021/09/15 03:34:08;;;;;;;;;19.60;17.40;;;;;;;;4958484;28;8895;-75
2021/09/15 03:36:36;;;;;;;;;14.00;13.40;;;;;;;;4971100;28;8883;-81
2021/09/15 03:39:06;;;;;;;;;13.40;13.00;;;;;;;;4964305;28;8916;-76
2021/09/15 03:41:33;;;;;;;;;9.80;9.80;;;;;;;;4964916;28;8866;-75
2021/09/15 03:44:01;;;;;;;;;10.00;9.80;;;;;;;;4964328;28;8877;-77
2021/09/15 03:46:28;;;;;;;;;12.00;12.00;;;;;;;;4964494;28;8877;-75
2021/09/15 03:48:55;;;;;;;;;15.40;12.20;;;;;;;;4957046;28;8921;-75
2021/09/15 03:51:23;;;;;;;;;14.40;13.40;;;;;;;;4964434;28;9002;-79
2021/09/15 03:53:50;;;;;;;;;13.40;13.40;;;;;;;;4965338;28;8870;-79
2021/09/15 03:56:18;;;;;;;;;15.80;14.60;;;;;;;;4953495;28;8984;-77
2021/09/15 03:58:46;;;;;;;;;15.20;13.80;;;;;;;;4964189;28;8900;-75
2021/09/15 04:01:14;;;;;;;;;16.20;16.20;;;;;;;;4961986;28;8809;-75
2021/09/15 04:03:41;;;;;;;;;13.80;12.20;;;;;;;;4964298;28;8952;-76
2021/09/15 04:06:09;;;;;;;;;12.20;12.20;;;;;;;;4963053;28;9000;-76
2021/09/15 04:08:37;;;;;;;;;11.00;11.00;;;;;;;;4964284;28;8866;-75
2021/09/15 04:11:04;;;;;;;;;14.40;13.20;;;;;;;;4966202;28;9655;-76
2021/09/15 04:13:33;;;;;;;;;15.00;13.20;;;;;;;;4961350;28;8881;-77
2021/09/15 04:16:00;;;;;;;;;14.20;14.20;;;;;;;;4963119;28;8876;-78
2021/09/15 04:18:27;;;;;;;;;13.00;12.60;;;;;;;;4966543;28;8890;-81
2021/09/15 04:20:55;;;;;;;;;13.60;13.00;;;;;;;;4966146;28;8888;-76
2021/09/15 04:23:25;;;;;;;;;13.20;13.20;;;;;;;;4967249;28;8889;-76
2021/09/15 04:31:25;;;;;;;;;13.20;11.60;;;;;;;;4964825;28;8865;-81
2021/09/15 04:33:53;;;;;;;;;13.80;12.60;;;;;;;;4961773;28;8873;-80
2021/09/15 04:36:21;;;;;;;;;9.20;9.20;;;;;;;;4966331;28;8967;-78
2021/09/15 04:38:49;;;;;;;;;13.20;11.60;;;;;;;;4966727;28;8913;-81
2021/09/15 04:41:17;;;;;;;;;11.40;11.40;;;;;;;;4965689;28;8911;-79
2021/09/15 04:43:46;;;;;;;;;13.40;13.40;;;;;;;;4963834;28;8893;-76
2021/09/15 04:46:13;;;;;;;;;14.80;13.00;;;;;;;;4966304;28;8907;-78
2021/09/15 04:48:41;;;;;;;;;11.40;11.40;;;;;;;;4966138;28;8899;-79
2021/09/15 04:51:08;;;;;;;;;11.80;10.40;;;;;;;;4966715;28;8904;-77
2021/09/15 04:53:35;;;;;;;;;11.80;11.80;;;;;;;;4965573;28;8999;-76
2021/09/15 04:56:03;;;;;;;;;10.20;10.20;;;;;;;;4966149;28;8894;-80
2021/09/15 04:58:33;;;;;;;;;13.80;12.00;;;;;;;;4965269;28;8988;-76
2021/09/15 05:01:02;;;;;;;;;12.20;12.20;;;;;;;;4965879;28;8930;-76
2021/09/15 05:03:29;;;;;;;;;10.80;10.80;;;;;;;;4966868;28;8880;-75
2021/09/15 05:05:56;;;;;;;;;10.40;10.00;;;;;;;;4965647;28;8909;-80
2021/09/15 05:08:24;;;;;;;;;9.80;9.80;;;;;;;;4966953;28;8905;-78
2021/09/15 05:10:51;;;;;;;;;11.60;10.60;;;;;;;;4967260;28;8861;-78
2021/09/15 05:13:18;;;;;;;;;11.00;11.00;;;;;;;;4966363;28;9659;-79
2021/09/15 05:15:45;;;;;;;;;8.80;8.80;;;;;;;;4964677;28;8853;-76
2021/09/15 05:18:14;;;;;;;;;9.80;9.80;;;;;;;;4963214;28;8877;-81
2021/09/15 05:20:41;;;;;;;;;9.60;9.20;;;;;;;;4968246;28;8938;-77
2021/09/15 05:23:08;;;;;;;;;13.40;12.00;;;;;;;;4965132;28;9008;-84
2021/09/15 05:25:36;;;;;;;;;9.60;9.60;;;;;;;;4965494;28;8897;-80
2021/09/15 05:28:04;;;;;;;;;9.40;9.00;;;;;;;;4964637;28;8881;-77
2021/09/15 05:30:31;;;;;;;;;9.20;9.20;;;;;;;;4958560;28;8822;-75
2021/09/15 05:32:59;;;;;;;;;10.00;10.00;;;;;;;;4962710;28;8907;-76
2021/09/15 05:35:29;;;;;;;;;9.20;9.20;;;;;;;;4962033;28;8866;-79
2021/09/15 05:37:56;;;;;;;;;8.00;8.00;;;;;;;;4967044;28;8889;-76
2021/09/15 05:40:24;;;;;;;;;9.00;9.00;;;;;;;;4965465;28;8877;-78
2021/09/15 05:42:51;;;;;;;;;11.00;9.20;;;;;;;;4964605;28;8865;-76
2021/09/15 05:45:19;;;;;;;;;9.00;8.40;;;;;;;;4960622;28;8869;-79
2021/09/15 05:47:46;;;;;;;;;11.80;11.80;;;;;;;;4966795;28;8892;-78
2021/09/15 05:50:14;;;;;;;;;11.40;11.40;;;;;;;;4965013;28;8915;-77
2021/09/15 05:52:43;;;;;;;;;15.00;13.40;;;;;;;;4967168;28;8911;-79
2021/09/15 05:55:10;;;;;;;;;12.00;11.00;;;;;;;;4963906;28;8888;-78
2021/09/15 05:57:38;;;;;;;;;13.20;13.00;;;;;;;;4966418;28;9004;-75
2021/09/15 06:00:08;;;;;;;;;11.20;9.40;;;;;;;;4965454;28;8903;-79
2021/09/15 06:02:35;;;;;;;;;14.40;14.40;;;;;;;;4966719;28;8972;-77
2021/09/15 06:05:02;;;;;;;;;12.20;10.40;;;;;;;;4966375;28;8962;-77
2021/09/15 06:07:29;;;;;;;;;12.00;11.60;;;;;;;;4965756;28;8877;-76
2021/09/15 06:09:58;;;;;;;;;12.20;12.20;;;;;;;;4962080;28;8857;-75
2021/09/15 06:12:25;;;;;;;;;11.20;10.20;;;;;;;;4966829;28;8950;-76
2021/09/15 06:14:53;;;;;;;;;10.80;10.80;;;;;;;;4965326;28;8899;-79
2021/09/15 06:17:20;;;;;;;;;12.20;12.00;;;;;;;;4960710;28;8949;-78
2021/09/15 06:19:47;;;;;;;;;13.40;12.60;;;;;;;;4961113;28;9689;-79
2021/09/15 06:22:14;;;;;;;;;9.60;8.40;;;;;;;;4966334;28;10054;-78
2021/09/15 06:24:42;;;;;;;;;13.40;12.60;;;;;;;;4957726;28;8877;-76
2021/09/15 06:27:17;;;;;;;;;11.00;11.00;;;;;;;;4964118;28;8992;-78
2021/09/15 06:29:44;;;;;;;;;12.80;11.00;;;;;;;;4964689;28;8976;-77
2021/09/15 06:32:12;;;;;;;;;11.80;11.80;;;;;;;;4964383;28;8876;-80
2021/09/15 06:34:39;;;;;;;;;15.00;13.60;;;;;;;;4963083;28;8921;-80
2021/09/15 06:37:07;;;;;;;;;9.40;9.40;;;;;;;;4973305;28;8909;-78
2021/09/15 06:39:34;;;;;;;;;13.60;13.60;;;;;;;;4967290;28;8897;-77
2021/09/15 06:42:01;;;;;;;;;12.00;10.40;;;;;;;;4965255;28;8904;-79
2021/09/15 06:44:30;;;;;;;;;15.20;15.20;;;;;;;;4966119;28;8885;-77
2021/09/15 06:46:57;;;;;;;;;17.60;13.40;;;;;;;;4953857;28;8934;-80
2021/09/15 06:49:25;;;;;;;;;14.20;13.00;;;;;;;;4965729;28;8904;-76
2021/09/15 06:51:52;;;;;;;;;12.40;12.20;;;;;;;;4965758;28;9017;-76
2021/09/15 06:54:19;;;;;;;;;11.80;11.60;;;;;;;;4966208;28;8893;-76
2021/09/15 06:56:46;;;;;;;;;12.20;11.00;;;;;;;;4959496;28;8870;-79
2021/09/15 06:59:14;;;;;;;;;11.40;9.40;;;;;;;;4964863;28;8909;-77
2021/09/15 07:01:42;;;;;;;;;12.20;11.00;;;;;;;;4963886;28;8833;-80
2021/09/15 07:04:10;;;;;;;;;17.40;15.80;;;;;;;;4965413;28;8865;-77
2021/09/15 07:06:37;;;;;;;;;11.80;11.40;;;;;;;;4964582;28;8885;-78
2021/09/15 07:09:04;;;;;;;;;13.60;13.60;;;;;;;;4961903;28;8885;-76
2021/09/15 07:11:32;;;;;;;;;7.80;7.80;;;;;;;;4965435;28;8873;-77
2021/09/15 07:14:03;;;;;;;;;14.60;14.60;;;;;;;;4960956;28;8859;-77
2021/09/15 07:16:30;;;;;;;;;12.40;12.00;;;;;;;;4962635;28;8961;-77
2021/09/15 07:18:59;;;;;;;;;14.40;14.00;;;;;;;;4965681;28;8901;-78
2021/09/15 07:21:26;;;;;;;;;16.40;15.20;;;;;;;;4964675;28;8894;-79
2021/09/15 07:23:54;;;;;;;;;18.20;15.40;;;;;;;;4965524;28;8877;-77
2021/09/15 07:26:25;;;;;;;;;14.00;14.00;;;;;;;;4964705;28;8880;-77
2021/09/15 07:28:53;;;;;;;;;21.00;18.40;;;;;;;;4965764;28;8902;-80
2021/09/15 07:31:21;;;;;;;;;15.00;15.00;;;;;;;;4960210;28;8797;-79
2021/09/15 07:33:48;;;;;;;;;15.80;15.40;;;;;;;;4964957;28;8900;-77
2021/09/15 07:36:17;;;;;;;;;23.20;19.20;;;;;;;;4965024;28;8971;-78
2021/09/15 07:38:45;;;;;;;;;18.20;18.20;;;;;;;;4964066;28;8874;-80
2021/09/15 07:41:12;;;;;;;;;17.20;17.00;;;;;;;;4964416;28;8885;-80
2021/09/15 07:43:41;;;;;;;;;19.60;15.80;;;;;;;;4964648;28;8919;-81
2021/09/15 07:46:15;;;;;;;;;10.80;10.80;;;;;;;;4965996;28;8850;-82
2021/09/15 07:48:43;;;;;;;;;11.40;11.40;;;;;;;;4961387;28;8884;-81
2021/09/15 07:51:10;;;;;;;;;13.80;13.40;;;;;;;;4957549;28;8897;-79
2021/09/15 07:53:39;;;;;;;;;14.20;12.40;;;;;;;;4963805;28;9007;-80
2021/09/15 07:56:06;;;;;;;;;14.00;13.60;;;;;;;;4963533;28;8889;-81
2021/09/15 07:58:34;;;;;;;;;10.40;10.20;;;;;;;;4964370;28;9622;-80
2021/09/15 08:01:01;;;;;;;;;13.60;11.40;;;;;;;;4963428;28;8786;-81
2021/09/15 08:03:29;;;;;;;;;13.80;11.20;;;;;;;;4964130;28;8904;-81
2021/09/15 08:05:57;;;;;;;;;10.40;10.40;;;;;;;;4963648;28;8877;-81
2021/09/15 08:08:25;;;;;;;;;13.20;13.20;;;;;;;;4961686;28;8891;-80
2021/09/15 08:10:54;;;;;;;;;11.80;11.80;;;;;;;;4961040;28;8936;-82
2021/09/15 08:13:24;;;;;;;;;12.20;12.20;;;;;;;;4965728;28;8992;-82
2021/09/15 08:15:52;;;;;;;;;13.20;11.00;;;;;;;;4966224;28;8901;-81
2021/09/15 08:18:20;;;;;;;;;10.60;10.60;;;;;;;;4964718;28;8873;-81
2021/09/15 08:20:49;;;;;;;;;11.20;11.20;;;;;;;;4963942;28;8904;-78
2021/09/15 08:23:18;;;;;;;;;13.40;12.80;;;;;;;;4956922;28;8885;-81
2021/09/15 08:25:46;;;;;;;;;15.00;13.80;;;;;;;;4964686;28;8865;-78
2021/09/15 08:28:14;;;;;;;;;15.40;15.40;;;;;;;;4962937;28;8996;-80
2021/09/15 08:30:42;;;;;;;;;17.00;15.20;;;;;;;;4964650;28;8794;-82
2021/09/15 08:33:10;;;;;;;;;13.40;13.40;;;;;;;;4963629;28;8881;-83
2021/09/15 08:35:37;;;;;;;;;13.00;13.00;;;;;;;;4968227;28;8905;-76
2021/09/15 08:38:04;;;;;;;;;14.20;14.20;;;;;;;;4969115;28;8869;-75
2021/09/15 08:40:40;;;;;;;;;17.40;16.20;;;;;;;;4963352;28;8885;-76
2021/09/15 08:43:09;;;;;;;;;14.80;12.00;;;;;;;;4965796;28;8857;-75
2021/09/15 08:45:41;;;;;;;;;17.40;15.00;;;;;;;;4964037;28;8988;-76
2021/09/15 08:48:08;;;;;;;;;13.80;13.80;;;;;;;;4965480;28;9793;-74
2021/09/15 08:50:36;;;;;;;;;15.40;15.40;;;;;;;;4958233;28;8877;-75
2021/09/15 08:53:03;;;;;;;;;19.60;17.80;;;;;;;;4963866;28;8865;-75
2021/09/15 08:55:31;;;;;;;;;17.00;17.00;;;;;;;;4961152;28;8896;-77
2021/09/15 08:57:59;;;;;;;;;16.40;16.40;;;;;;;;4964858;28;8861;-75
2021/09/15 09:00:28;;;;;;;;;16.20;16.20;;;;;;;;4962829;28;8785;-76
2021/09/15 09:02:58;;;;;;;;;13.80;13.00;;;;;;;;4965034;28;8988;-77
2021/09/15 09:05:25;;;;;;;;;18.20;18.20;;;;;;;;4960381;28;8991;-76
2021/09/15 09:07:52;;;;;;;;;24.60;18.00;;;;;;;;4965198;28;9012;-77
2021/09/15 09:10:21;;;;;;;;;18.00;17.40;;;;;;;;4969111;28;8889;-78
2021/09/15 09:12:48;;;;;;;;;18.20;17.80;;;;;;;;4966820;28;8873;-76
2021/09/15 09:15:20;;;;;;;;;17.40;14.60;;;;;;;;4968512;28;8888;-77
2021/09/15 09:17:48;;;;;;;;;18.40;17.80;;;;;;;;4967043;28;9048;-76
2021/09/15 09:20:23;;;;;;;;;14.40;14.40;;;;;;;;4966387;28;8874;-77
2021/09/15 09:23:05;;;;;;;;;21.20;19.40;;;;;;;;4964952;28;8989;-78
2021/09/15 09:25:34;;;;;;;;;15.20;15.20;;;;;;;;4966803;28;8988;-79
2021/09/15 09:28:01;;;;;;;;;17.60;16.00;;;;;;;;4965587;28;8915;-78
2021/09/15 09:30:37;;;;;;;;;19.20;17.60;;;;;;;;4958611;28;8912;-78
2021/09/15 09:33:06;;;;;;;;;20.00;17.20;;;;;;;;4967842;28;9019;-79
2021/09/15 09:35:52;;;;;;;;;18.20;18.20;;;;;;;;4970659;28;8867;-80
2021/09/15 09:38:23;;;;;;;;;20.40;20.40;;;;;;;;4959063;28;8881;-75
2021/09/15 09:40:55;;;;;;;;;17.60;15.60;;;;;;;;4967756;28;8877;-76
2021/09/15 09:43:23;;;;;;;;;16.80;16.20;;;;;;;;4964304;28;8911;-76
2021/09/15 09:45:50;;;;;;;;;22.20;19.20;;;;;;;;4966063;28;8869;-75
2021/09/15 09:48:38;;;;;;;;;17.60;15.80;;;;;;;;4964720;28;8858;-78
2021/09/15 09:51:41;;;;;;;;;16.60;14.80;;;;;;;;4966381;28;8898;-77
2021/09/15 09:54:21;;;;;;;;;20.60;20.60;;;;;;;;4960881;28;8885;-76
2021/09/15 09:56:49;;;;;;;;;25.40;23.60;;;;;;;;4962712;28;8877;-77
2021/09/15 09:59:18;;;;;;;;;25.00;23.20;;;;;;;;4966052;28;8909;-79
2021/09/15 10:01:47;;;;;;;;;24.00;21.00;;;;;;;;4958196;28;8842;-79
2021/09/15 10:04:15;;;;;;;;;22.00;18.40;;;;;;;;4966303;28;8991;-79
2021/09/15 10:06:43;;;;;;;;;26.00;25.60;;;;;;;;4966432;28;8880;-76
2021/09/15 10:09:11;;;;;;;;;19.60;19.60;;;;;;;;4964130;28;8865;-77
2021/09/15 10:11:41;;;;;;;;;20.00;19.60;;;;;;;;4958643;28;9581;-78
2021/09/15 10:14:12;;;;;;;;;23.60;22.00;;;;;;;;4963714;28;8881;-78
2021/09/15 10:16:51;;;;;;;;;21.20;21.20;;;;;;;;4968274;28;8881;-81
2021/09/15 10:19:20;;;;;;;;;26.60;23.20;;;;;;;;4962802;28;8939;-79
2021/09/15 10:21:59;;;;;;;;;27.40;24.60;;;;;;;;4960478;28;8893;-75
2021/09/15 10:24:50;;;;;;;;;27.20;25.20;;;;;;;;4966376;28;8881;-77
2021/09/15 10:27:21;;;;;;;;;25.20;23.60;;;;;;;;4955743;28;8889;-76
2021/09/15 10:30:11;;;;;;;;;25.40;25.40;;;;;;;;4963661;28;8901;-76
2021/09/15 10:32:40;;;;;;;;;25.00;24.20;;;;;;;;4961698;28;8834;-76
2021/09/15 10:35:08;;;;;;;;;30.20;27.20;;;;;;;;4965809;28;9023;-75
2021/09/15 10:37:51;;;;;;;;;24.40;24.40;;;;;;;;4966256;28;8862;-75
2021/09/15 10:40:34;;;;;;;;;27.00;25.00;;;;;;;;4962914;28;9510;-76
2021/09/15 10:43:04;;;;;;;;;24.40;24.40;;;;;;;;4963666;28;8876;-78
2021/09/15 10:45:32;;;;;;;;;32.20;27.20;;;;;;;;4952591;28;8922;-78
2021/09/15 10:48:04;;;;;;;;;28.60;27.40;;;;;;;;4962305;28;8881;-77
2021/09/15 10:50:53;;;;;;;;;31.40;28.00;;;;;;;;4965440;28;8888;-77
2021/09/15 10:53:22;;;;;;;;;25.00;23.80;;;;;;;;4922000;28;8876;-75
2021/09/15 10:55:53;;;;;;;;;27.80;25.80;;;;;;;;4962802;28;8907;-76
2021/09/15 10:58:24;;;;;;;;;24.40;24.40;;;;;;;;4961334;28;8912;-77
2021/09/15 11:00:54;;;;;;;;;33.40;30.00;;;;;;;;4962867;28;9435;-75
2021/09/15 11:03:31;;;;;;;;;27.60;25.60;;;;;;;;4965966;28;8872;-74
2021/09/15 11:06:00;;;;;;;;;26.60;26.60;;;;;;;;4953301;28;8890;-75
2021/09/15 11:08:36;;;;;;;;;26.60;25.40;;;;;;;;4953459;28;8869;-75
2021/09/15 11:11:04;;;;;;;;;30.20;29.20;;;;;;;;4965147;28;8971;-75
2021/09/15 11:14:04;;;;;;;;;28.20;28.00;;;;;;;;4966175;28;9707;-75
2021/09/15 11:16:34;;;;;;;;;28.40;28.40;;;;;;;;4887079;29;8865;-75
2021/09/15 11:19:04;;;;;;;;;27.40;26.60;;;;;;;;4948995;28;8869;-75
2021/09/15 11:21:33;;;;;;;;;28.00;26.60;;;;;;;;4966139;28;8969;-75
2021/09/15 11:24:09;;;;;;;;;31.80;27.20;;;;;;;;4959795;28;8877;-75
2021/09/15 11:26:48;;;;;;;;;25.80;25.60;;;;;;;;4964646;28;8885;-75
2021/09/15 11:29:32;;;;;;;;;22.60;21.20;;;;;;;;4963913;28;8892;-75
2021/09/15 11:32:00;;;;;;;;;26.40;23.80;;;;;;;;4964103;28;8854;-75
2021/09/15 11:34:30;;;;;;;;;21.60;21.00;;;;;;;;4965670;28;9709;-75
2021/09/15 11:36:57;;;;;;;;;25.40;23.40;;;;;;;;4972420;28;9008;-76
2021/09/15 11:39:25;;;;;;;;;24.80;23.40;;;;;;;;4961048;28;8917;-75
2021/09/15 11:42:02;;;;;;;;;24.60;24.60;;;;;;;;4955503;28;8983;-75
2021/09/15 11:44:31;;;;;;;;;25.40;23.80;;;;;;;;4960361;28;8873;-74
2021/09/15 11:47:03;;;;;;;;;37.00;30.80;;;;;;;;4952546;28;10036;-75
2021/09/15 11:49:31;;;;;;;;;26.20;26.20;;;;;;;;4951730;28;8875;-75
2021/09/15 11:52:00;;;;;;;;;31.80;27.00;;;;;;;;4956491;28;8871;-75
2021/09/15 11:54:27;;;;;;;;;33.00;30.60;;;;;;;;4963556;28;8908;-75
2021/09/15 11:57:04;;;;;;;;;36.60;32.40;;;;;;;;4955190;28;8880;-75
2021/09/15 11:59:33;;;;;;;;;33.00;30.80;;;;;;;;4959688;28;8865;-74
2021/09/15 12:02:02;;;;;;;;;35.40;28.00;;;;;;;;4963117;28;8864;-75
2021/09/15 12:04:29;;;;;;;;;22.20;19.40;;;;;;;;4956902;28;9757;-76
2021/09/15 12:06:57;;;;;;;;;34.80;31.20;;;;;;;;4964582;28;9012;-76
2021/09/15 12:09:24;;;;;;;;;23.60;19.80;;;;;;;;4965473;28;8869;-76
2021/09/15 12:11:52;;;;;;;;;25.80;25.80;;;;;;;;4964057;28;8905;-76
2021/09/15 12:14:19;;;;;;;;;28.20;26.60;;;;;;;;4966033;28;8885;-76
2021/09/15 12:16:48;;;;;;;;;27.20;27.20;;;;;;;;4964064;28;8873;-76
2021/09/15 12:19:16;;;;;;;;;29.40;28.80;;;;;;;;4965206;28;8886;-75
2021/09/15 12:21:46;;;;;;;;;32.20;26.80;;;;;;;;4965069;28;8889;-76
2021/09/15 12:24:14;;;;;;;;;31.20;28.00;;;;;;;;4964453;28;8881;-76
2021/09/15 12:26:43;;;;;;;;;33.80;30.80;;;;;;;;4958376;28;8865;-75
2021/09/15 12:29:12;;;;;;;;;29.00;27.40;;;;;;;;4957637;28;8894;-76
2021/09/15 12:31:41;;;;;;;;;32.40;30.20;;;;;;;;4962434;28;8879;-75
2021/09/15 12:34:10;;;;;;;;;28.40;27.60;;;;;;;;4964595;28;8881;-76
2021/09/15 12:36:38;;;;;;;;;29.20;29.20;;;;;;;;4973311;28;8923;-76
2021/09/15 12:39:12;;;;;;;;;32.20;30.60;;;;;;;;4967611;28;8865;-76
2021/09/15 12:41:58;;;;;;;;;29.60;29.40;;;;;;;;4960376;28;8869;-76
2021/09/15 12:44:33;;;;;;;;;33.00;30.00;;;;;;;;4963351;28;8892;-74
2021/09/15 12:47:05;;;;;;;;;33.00;29.40;;;;;;;;4963090;28;8906;-77
2021/09/15 12:49:37;;;;;;;;;30.20;29.80;;;;;;;;4962981;28;8897;-72
2021/09/15 12:52:07;;;;;;;;;36.60;33.60;;;;;;;;4966461;28;9862;-75
2021/09/15 12:54:36;;;;;;;;;39.80;33.00;;;;;;;;4961446;28;8985;-75
2021/09/15 12:57:19;;;;;;;;;37.80;30.60;;;;;;;;4962809;28;8866;-75
2021/09/15 12:59:47;;;;;;;;;32.60;31.40;;;;;;;;4951148;28;8923;-77
2021/09/15 13:02:25;;;;;;;;;33.80;32.00;;;;;;;;4960045;28;8948;-76
2021/09/15 13:04:53;;;;;;;;;39.80;32.40;;;;;;;;4959591;28;8899;-77
2021/09/15 13:07:21;;;;;;;;;35.20;32.00;;;;;;;;4961694;28;9670;-74
2021/09/15 13:09:49;;;;;;;;;33.80;32.00;;;;;;;;4966158;28;8869;-77
2021/09/15 13:12:18;;;;;;;;;39.20;34.40;;;;;;;;4966439;28;8901;-76
2021/09/15 13:14:46;;;;;;;;;38.60;33.40;;;;;;;;4966326;28;8881;-77
2021/09/15 13:17:14;;;;;;;;;39.60;35.00;;;;;;;;4959097;28;8885;-74
2021/09/15 13:19:42;;;;;;;;;45.20;35.60;;;;;;;;4963320;28;8889;-77
2021/09/15 13:22:11;;;;;;;;;37.80;34.40;;;;;;;;4961935;28;8949;-77
2021/09/15 13:24:38;;;;;;;;;38.40;34.60;;;;;;;;4966902;28;9160;-78
2021/09/15 13:27:08;;;;;;;;;42.20;35.40;;;;;;;;4961543;28;8877;-76
2021/09/15 13:29:37;;;;;;;;;43.20;36.40;;;;;;;;4961077;28;8881;-77
2021/09/15 13:32:06;;;;;;;;;39.60;33.80;;;;;;;;4958818;28;8868;-77
2021/09/15 13:34:33;;;;;;;;;41.80;33.80;;;;;;;;4957436;28;9036;-77
2021/09/15 13:37:02;;;;;;;;;41.40;34.60;;;;;;;;4966606;28;8905;-77
2021/09/15 13:39:31;;;;;;;;;45.00;35.60;;;;;;;;4965231;28;9412;-77
2021/09/15 13:42:00;;;;;;;;;46.20;36.80;;;;;;;;4966662;28;8877;-76
2021/09/15 13:44:28;;;;;;;;;42.80;34.80;;;;;;;;4962422;28;8871;-76
2021/09/15 13:46:55;;;;;;;;;41.60;36.40;;;;;;;;4964710;28;8889;-77
2021/09/15 13:49:23;;;;;;;;;40.40;35.80;;;;;;;;4959127;28;8885;-77
2021/09/15 13:51:51;;;;;;;;;46.20;34.40;;;;;;;;4952815;28;8901;-76
2021/09/15 13:54:19;;;;;;;;;48.40;39.20;;;;;;;;4959404;28;8885;-76
2021/09/15 13:56:47;;;;;;;;;47.40;38.00;;;;;;;;4951166;28;8892;-76
2021/09/15 13:59:14;;;;;;;;;47.80;39.20;;;;;;;;4958302;28;8915;-77
2021/09/15 14:01:42;;;;;;;;;47.20;39.00;;;;;;;;4962587;28;8864;-77
2021/09/15 14:04:09;;;;;;;;;46.40;40.00;;;;;;;;4965671;28;8881;-77
2021/09/15 14:06:36;;;;;;;;;50.50;42.00;;;;;;;;4966066;28;8865;-77
2021/09/15 14:09:04;;;;;;;;;46.25;39.75;;;;;;;;4965193;28;8877;-77
2021/09/15 14:11:31;;;;;;;;;49.75;41.25;;;;;;;;4963393;28;8870;-77
2021/09/15 14:14:00;;;;;;;;;49.25;41.50;;;;;;;;4963545;28;8885;-76
2021/09/15 14:16:27;;;;;;;;;53.25;43.50;;;;;;;;4962807;28;8889;-76
2021/09/15 14:18:54;;;;;;;;;49.75;41.00;;;;;;;;4963800;28;8893;-76
2021/09/15 14:21:21;;;;;;;;;50.20;40.40;;;;;;;;4964179;28;8891;-76
2021/09/15 14:23:49;;;;;;;;;49.00;40.40;;;;;;;;4962036;28;8968;-77
2021/09/15 14:26:16;;;;;;;;;44.00;36.75;;;;;;;;4960420;28;8876;-76
2021/09/15 14:28:43;;;;;;;;;52.00;41.25;;;;;;;;4965237;28;8904;-76
2021/09/15 14:31:12;;;;;;;;;45.80;39.40;;;;;;;;4957907;28;8867;-76
2021/09/15 14:33:39;;;;;;;;;42.60;36.00;;;;;;;;4962208;28;8992;-76
2021/09/15 14:36:06;;;;;;;;;38.80;34.80;;;;;;;;4963584;28;8878;-76
2021/09/15 14:38:34;;;;;;;;;43.20;37.00;;;;;;;;4963637;28;8999;-77
2021/09/15 14:41:02;;;;;;;;;38.40;33.40;;;;;;;;4961510;28;8853;-77
2021/09/15 14:43:29;;;;;;;;;43.60;36.20;;;;;;;;4965203;28;9901;-77
2021/09/15 14:45:56;;;;;;;;;36.60;32.60;;;;;;;;4965769;28;9004;-77
2021/09/15 14:48:25;;;;;;;;;42.80;36.00;;;;;;;;4964419;28;8899;-77
2021/09/15 14:50:52;;;;;;;;;44.60;35.00;;;;;;;;4962549;28;8927;-77
2021/09/15 14:53:19;;;;;;;;;36.60;33.80;;;;;;;;4961222;28;8873;-77